sensor_id;sensor_type;location;lat;lon;timestamp;pressure;altitude;pressure_sealevel;temperature;humidity
3254;BME280;1639;42.804;23.342;2022-08-25T00:00:44;71894.91;;;-148.52;85.34
3254;BME280;1639;42.804;23.342;2022-08-25T00:03:10;71876.28;;;-148.52;83.36
3254;BME280;1639;42.804;23.342;2022-08-25T00:05:36;71892.81;;;-148.52;83.58
3254;BME280;1639;42.804;23.342;2022-08-25T00:08:03;71909.38;;;-148.52;84.62
3254;BME280;1639;42.804;23.342;2022-08-25T00:10:31;71923.84;;;-148.52;85.91
3254;BME280;1639;42.804;23.342;2022-08-25T00:12:57;71923.84;;;-148.52;85.71
3254;BME280;1639;42.804;23.342;2022-08-25T00:15:23;71944.53;;;-148.52;86.83
3254;BME280;1639;42.804;23.342;2022-08-25T00:17:48;71946.59;;;-148.52;86.86
3254;BME280;1639;42.804;23.342;2022-08-25T00:20:15;71950.72;;;-148.52;86.99
3254;BME280;1639;42.804;23.342;2022-08-25T00:22:40;71959.00;;;-148.52;88.24
3254;BME280;1639;42.804;23.342;2022-08-25T00:25:06;71948.66;;;-148.52;87.85
3254;BME280;1639;42.804;23.342;2022-08-25T00:27:32;71948.66;;;-148.52;87.07
3254;BME280;1639;42.804;23.342;2022-08-25T00:29:58;71987.94;;;-148.52;89.07
3254;BME280;1639;42.804;23.342;2022-08-25T00:32:24;71992.06;;;-148.52;92.67
3254;BME280;1639;42.804;23.342;2022-08-25T00:34:51;71979.66;;;-148.52;92.37
3254;BME280;1639;42.804;23.342;2022-08-25T00:37:17;71971.41;;;-148.52;92.34
3254;BME280;1639;42.804;23.342;2022-08-25T00:39:43;71975.53;;;-148.52;91.84
3254;BME280;1639;42.804;23.342;2022-08-25T00:42:09;71975.53;;;-148.52;92.14
3254;BME280;1639;42.804;23.342;2022-08-25T00:44:35;71971.41;;;-148.52;91.24
3254;BME280;1639;42.804;23.342;2022-08-25T00:47:01;71940.38;;;-148.52;90.03
3254;BME280;1639;42.804;23.342;2022-08-25T00:49:32;71950.72;;;-148.52;88.85
3254;BME280;1639;42.804;23.342;2022-08-25T00:55:06;71944.53;;;-148.52;88.36
3254;BME280;1639;42.804;23.342;2022-08-25T00:57:36;71921.78;;;-148.52;87.41
3254;BME280;1639;42.804;23.342;2022-08-25T01:02:38;71923.84;;;-148.52;86.58
3254;BME280;1639;42.804;23.342;2022-08-25T01:05:04;71936.25;;;-148.52;88.88
3254;BME280;1639;42.804;23.342;2022-08-25T01:07:30;71938.31;;;-148.52;89.15
3254;BME280;1639;42.804;23.342;2022-08-25T01:09:58;71942.44;;;-148.52;89.04
3254;BME280;1639;42.804;23.342;2022-08-25T01:12:24;71973.47;;;-148.52;90.94
3254;BME280;1639;42.804;23.342;2022-08-25T01:14:51;71959.00;;;-148.52;90.41
3254;BME280;1639;42.804;23.342;2022-08-25T01:17:17;71952.78;;;-148.52;89.83
3254;BME280;1639;42.804;23.342;2022-08-25T01:19:43;71952.78;;;-148.52;89.61
3254;BME280;1639;42.804;23.342;2022-08-25T01:22:08;71963.13;;;-148.52;89.63
3254;BME280;1639;42.804;23.342;2022-08-25T01:25:04;71956.94;;;-148.52;89.29
3254;BME280;1639;42.804;23.342;2022-08-25T01:27:31;71963.13;;;-148.52;89.30
3254;BME280;1639;42.804;23.342;2022-08-25T01:29:57;71977.59;;;-148.52;90.46
3254;BME280;1639;42.804;23.342;2022-08-25T01:32:22;71963.13;;;-148.52;89.91
3254;BME280;1639;42.804;23.342;2022-08-25T01:34:48;71969.34;;;-148.52;89.14
3254;BME280;1639;42.804;23.342;2022-08-25T01:37:15;71969.34;;;-148.52;88.28
3254;BME280;1639;42.804;23.342;2022-08-25T01:39:41;71973.47;;;-148.52;88.66
3254;BME280;1639;42.804;23.342;2022-08-25T01:42:52;71983.81;;;-148.52;89.56
3254;BME280;1639;42.804;23.342;2022-08-25T01:45:11;71992.06;;;-148.52;90.22
3254;BME280;1639;42.804;23.342;2022-08-25T01:47:36;72000.34;;;-148.52;89.95
3254;BME280;1639;42.804;23.342;2022-08-25T01:50:04;72008.63;;;-148.52;91.49
3254;BME280;1639;42.804;23.342;2022-08-25T01:55:35;72000.34;;;-148.52;92.45
3254;BME280;1639;42.804;23.342;2022-08-25T01:58:23;72002.41;;;-148.52;93.57
3254;BME280;1639;42.804;23.342;2022-08-25T02:00:51;72004.47;;;-148.52;93.13
3254;BME280;1639;42.804;23.342;2022-08-25T02:03:19;72002.41;;;-148.52;92.48
3254;BME280;1639;42.804;23.342;2022-08-25T02:05:45;72012.75;;;-148.52;93.85
3254;BME280;1639;42.804;23.342;2022-08-25T02:08:11;72006.56;;;-148.52;93.06
3254;BME280;1639;42.804;23.342;2022-08-25T02:10:37;72021.03;;;-148.52;93.39
3254;BME280;1639;42.804;23.342;2022-08-25T02:13:03;72027.22;;;-148.52;94.58
3254;BME280;1639;42.804;23.342;2022-08-25T02:15:29;72012.75;;;-148.52;94.99
3254;BME280;1639;42.804;23.342;2022-08-25T02:17:55;72000.34;;;-148.52;94.31
3254;BME280;1639;42.804;23.342;2022-08-25T02:20:21;72000.34;;;-148.52;93.65
3254;BME280;1639;42.804;23.342;2022-08-25T02:22:49;71992.06;;;-148.52;94.57
3254;BME280;1639;42.804;23.342;2022-08-25T02:25:15;71992.06;;;-148.52;94.10
3254;BME280;1639;42.804;23.342;2022-08-25T02:27:41;71996.22;;;-148.52;93.97
3254;BME280;1639;42.804;23.342;2022-08-25T02:30:07;72008.63;;;-148.52;94.85
3254;BME280;1639;42.804;23.342;2022-08-25T02:32:33;72002.41;;;-148.52;94.81
3254;BME280;1639;42.804;23.342;2022-08-25T02:34:58;72004.47;;;-148.52;94.50
3254;BME280;1639;42.804;23.342;2022-08-25T02:37:23;72008.63;;;-148.52;95.41
3254;BME280;1639;42.804;23.342;2022-08-25T02:39:49;72008.63;;;-148.52;95.95
3254;BME280;1639;42.804;23.342;2022-08-25T02:42:14;72006.56;;;-148.52;95.64
3254;BME280;1639;42.804;23.342;2022-08-25T02:44:39;71994.13;;;-148.52;95.20
3254;BME280;1639;42.804;23.342;2022-08-25T02:47:05;71992.06;;;-148.52;94.63
3254;BME280;1639;42.804;23.342;2022-08-25T02:49:31;71996.22;;;-148.52;94.36
3254;BME280;1639;42.804;23.342;2022-08-25T02:51:57;71992.06;;;-148.52;94.28
3254;BME280;1639;42.804;23.342;2022-08-25T02:54:25;71985.88;;;-148.52;93.50
3254;BME280;1639;42.804;23.342;2022-08-25T02:56:50;71992.06;;;-148.52;93.57
3254;BME280;1639;42.804;23.342;2022-08-25T02:59:16;72000.34;;;-148.52;94.73
3254;BME280;1639;42.804;23.342;2022-08-25T03:01:43;72004.47;;;-148.52;94.67
3254;BME280;1639;42.804;23.342;2022-08-25T03:04:08;72002.41;;;-148.52;94.93
3254;BME280;1639;42.804;23.342;2022-08-25T03:06:34;71992.06;;;-148.52;94.55
3254;BME280;1639;42.804;23.342;2022-08-25T03:09:00;71975.53;;;-148.52;93.56
3254;BME280;1639;42.804;23.342;2022-08-25T03:11:25;71987.94;;;-148.52;93.00
3254;BME280;1639;42.804;23.342;2022-08-25T03:13:52;71983.81;;;-148.52;93.06
3254;BME280;1639;42.804;23.342;2022-08-25T03:16:18;71973.47;;;-148.52;92.24
3254;BME280;1639;42.804;23.342;2022-08-25T03:18:44;72016.88;;;-148.52;94.00
3254;BME280;1639;42.804;23.342;2022-08-25T03:21:11;72029.28;;;-148.52;96.13
3254;BME280;1639;42.804;23.342;2022-08-25T03:23:38;72021.03;;;-148.52;96.28
3254;BME280;1639;42.804;23.342;2022-08-25T03:26:04;72006.56;;;-148.52;95.66
3254;BME280;1639;42.804;23.342;2022-08-25T03:28:48;71992.06;;;-148.52;93.86
3254;BME280;1639;42.804;23.342;2022-08-25T03:31:13;71996.22;;;-148.52;92.81
3254;BME280;1639;42.804;23.342;2022-08-25T03:33:39;71992.06;;;-148.52;93.65
3254;BME280;1639;42.804;23.342;2022-08-25T03:36:06;72008.63;;;-148.52;94.26
3254;BME280;1639;42.804;23.342;2022-08-25T03:38:33;72006.56;;;-148.52;93.83
3254;BME280;1639;42.804;23.342;2022-08-25T03:40:58;72002.41;;;-148.52;93.22
3254;BME280;1639;42.804;23.342;2022-08-25T03:43:24;72008.63;;;-148.52;93.22
3254;BME280;1639;42.804;23.342;2022-08-25T03:45:49;72008.63;;;-148.52;93.24
3254;BME280;1639;42.804;23.342;2022-08-25T03:48:16;72021.03;;;-148.52;94.06
3254;BME280;1639;42.804;23.342;2022-08-25T03:50:47;72025.16;;;-148.52;95.29
3254;BME280;1639;42.804;23.342;2022-08-25T03:53:14;72012.75;;;-148.52;94.84
3254;BME280;1639;42.804;23.342;2022-08-25T03:55:39;72016.88;;;-148.52;94.46
3254;BME280;1639;42.804;23.342;2022-08-25T03:58:05;72029.28;;;-148.52;94.58
3254;BME280;1639;42.804;23.342;2022-08-25T04:00:30;72035.50;;;-148.52;95.60
3254;BME280;1639;42.804;23.342;2022-08-25T04:02:55;72045.84;;;-148.52;96.05
3254;BME280;1639;42.804;23.342;2022-08-25T04:05:21;72052.03;;;-148.52;97.79
3254;BME280;1639;42.804;23.342;2022-08-25T04:07:47;72035.50;;;-148.52;98.11
3254;BME280;1639;42.804;23.342;2022-08-25T04:10:12;72045.84;;;-148.52;98.31
3254;BME280;1639;42.804;23.342;2022-08-25T04:12:38;72037.56;;;-148.52;98.97
3254;BME280;1639;42.804;23.342;2022-08-25T04:15:05;72045.84;;;-148.52;98.84
3254;BME280;1639;42.804;23.342;2022-08-25T04:17:30;72049.97;;;-148.52;99.53
3254;BME280;1639;42.804;23.342;2022-08-25T04:19:56;72031.38;;;-148.52;98.83
3254;BME280;1639;42.804;23.342;2022-08-25T04:22:22;72025.16;;;-148.52;98.52
3254;BME280;1639;42.804;23.342;2022-08-25T04:24:47;72023.09;;;-148.52;98.10
3254;BME280;1639;42.804;23.342;2022-08-25T04:27:13;72014.81;;;-148.52;97.53
3254;BME280;1639;42.804;23.342;2022-08-25T04:29:38;72004.47;;;-148.52;96.56
3254;BME280;1639;42.804;23.342;2022-08-25T04:32:04;71992.06;;;-148.52;96.58
3254;BME280;1639;42.804;23.342;2022-08-25T04:34:30;71983.81;;;-148.52;96.50
3254;BME280;1639;42.804;23.342;2022-08-25T04:36:56;71996.22;;;-148.52;97.04
3254;BME280;1639;42.804;23.342;2022-08-25T04:39:21;71987.94;;;-148.52;96.54
3254;BME280;1639;42.804;23.342;2022-08-25T04:41:48;71983.81;;;-148.52;96.80
3254;BME280;1639;42.804;23.342;2022-08-25T04:44:14;71971.41;;;-148.52;96.73
3254;BME280;1639;42.804;23.342;2022-08-25T04:46:40;71977.59;;;-148.52;96.57
3254;BME280;1639;42.804;23.342;2022-08-25T04:49:05;71971.41;;;-148.52;96.92
3254;BME280;1639;42.804;23.342;2022-08-25T04:51:33;71965.19;;;-148.52;96.45
3254;BME280;1639;42.804;23.342;2022-08-25T04:54:03;71967.25;;;-148.52;96.75
3254;BME280;1639;42.804;23.342;2022-08-25T04:56:30;71954.84;;;-148.52;96.92
3254;BME280;1639;42.804;23.342;2022-08-25T04:59:01;71950.72;;;-148.52;96.74
3254;BME280;1639;42.804;23.342;2022-08-25T05:01:27;71938.31;;;-148.52;96.39
3254;BME280;1639;42.804;23.342;2022-08-25T05:03:55;71921.78;;;-148.52;95.02
3254;BME280;1639;42.804;23.342;2022-08-25T05:06:22;71921.78;;;-148.52;95.49
3254;BME280;1639;42.804;23.342;2022-08-25T05:08:48;71921.78;;;-148.52;95.81
3254;BME280;1639;42.804;23.342;2022-08-25T05:11:14;71923.84;;;-148.52;97.16
3254;BME280;1639;42.804;23.342;2022-08-25T05:13:42;71921.78;;;-148.52;96.61
3254;BME280;1639;42.804;23.342;2022-08-25T05:16:07;71907.31;;;-148.52;95.80
3254;BME280;1639;42.804;23.342;2022-08-25T05:18:33;71882.50;;;-148.52;95.15
3254;BME280;1639;42.804;23.342;2022-08-25T05:21:07;71868.00;;;-148.52;95.62
3254;BME280;1639;42.804;23.342;2022-08-25T05:23:33;71863.88;;;-148.52;94.52
3254;BME280;1639;42.804;23.342;2022-08-25T05:26:07;71868.00;;;-148.52;95.53
3254;BME280;1639;42.804;23.342;2022-08-25T05:28:33;71843.19;;;-148.52;94.71
3254;BME280;1639;42.804;23.342;2022-08-25T05:31:00;71816.31;;;-148.52;95.06
3254;BME280;1639;42.804;23.342;2022-08-25T05:33:27;71791.50;;;-148.52;94.55
3254;BME280;1639;42.804;23.342;2022-08-25T05:35:53;71768.78;;;-148.52;92.96
3254;BME280;1639;42.804;23.342;2022-08-25T05:38:18;71739.81;;;-148.52;91.67
3254;BME280;1639;42.804;23.342;2022-08-25T05:40:44;71715.00;;;-148.52;89.67
3254;BME280;1639;42.804;23.342;2022-08-25T05:43:09;71700.53;;;-148.52;89.43
3254;BME280;1639;42.804;23.342;2022-08-25T05:45:36;71686.06;;;-148.52;88.18
3254;BME280;1639;42.804;23.342;2022-08-25T05:48:01;71692.28;;;-148.52;88.39
3254;BME280;1639;42.804;23.342;2022-08-25T05:50:27;71696.41;;;-148.52;88.13
3254;BME280;1639;42.804;23.342;2022-08-25T05:52:52;71686.06;;;-148.52;88.06
3254;BME280;1639;42.804;23.342;2022-08-25T05:55:18;71673.66;;;-148.52;89.06
3254;BME280;1639;42.804;23.342;2022-08-25T05:57:44;71673.66;;;-148.52;88.50
3254;BME280;1639;42.804;23.342;2022-08-25T06:00:10;71663.31;;;-148.52;87.76
3254;BME280;1639;42.804;23.342;2022-08-25T06:02:37;71667.47;;;-148.52;88.02
3254;BME280;1639;42.804;23.342;2022-08-25T06:05:10;71671.59;;;-148.52;86.74
3254;BME280;1639;42.804;23.342;2022-08-25T06:07:35;71681.94;;;-148.52;87.03
3254;BME280;1639;42.804;23.342;2022-08-25T06:10:03;71681.94;;;-148.52;87.63
3254;BME280;1639;42.804;23.342;2022-08-25T06:12:29;71698.47;;;-148.52;87.88
3254;BME280;1639;42.804;23.342;2022-08-25T06:14:56;71686.06;;;-148.52;87.22
3254;BME280;1639;42.804;23.342;2022-08-25T06:17:21;71681.94;;;-148.52;87.44
3254;BME280;1639;42.804;23.342;2022-08-25T06:19:47;71690.19;;;-148.52;87.11
3254;BME280;1639;42.804;23.342;2022-08-25T06:22:12;71675.72;;;-148.52;87.07
3254;BME280;1639;42.804;23.342;2022-08-25T06:24:38;71657.13;;;-148.52;87.38
3254;BME280;1639;42.804;23.342;2022-08-25T06:27:03;71648.84;;;-148.52;87.25
3254;BME280;1639;42.804;23.342;2022-08-25T06:29:29;71636.44;;;-148.52;86.24
3254;BME280;1639;42.804;23.342;2022-08-25T06:31:54;71621.97;;;-148.52;85.66
3254;BME280;1639;42.804;23.342;2022-08-25T06:34:19;71603.38;;;-148.52;86.60
3254;BME280;1639;42.804;23.342;2022-08-25T06:36:45;71599.22;;;-148.52;85.34
3254;BME280;1639;42.804;23.342;2022-08-25T06:39:11;71595.09;;;-148.52;85.00
3254;BME280;1639;42.804;23.342;2022-08-25T06:41:37;71570.28;;;-148.52;83.85
3254;BME280;1639;42.804;23.342;2022-08-25T06:44:03;71566.16;;;-148.52;84.28
3254;BME280;1639;42.804;23.342;2022-08-25T06:46:29;71545.47;;;-148.52;83.93
3254;BME280;1639;42.804;23.342;2022-08-25T06:48:56;71533.06;;;-148.52;83.49
3254;BME280;1639;42.804;23.342;2022-08-25T06:51:24;71506.19;;;-148.52;82.68
3254;BME280;1639;42.804;23.342;2022-08-25T06:53:50;71483.44;;;-148.52;82.90
3254;BME280;1639;42.804;23.342;2022-08-25T06:56:19;71468.97;;;-148.52;81.31
3254;BME280;1639;42.804;23.342;2022-08-25T06:58:45;71473.13;;;-148.52;81.14
3254;BME280;1639;42.804;23.342;2022-08-25T07:01:16;71446.25;;;-148.52;81.49
3254;BME280;1639;42.804;23.342;2022-08-25T07:03:44;71433.84;;;-148.52;80.19
3254;BME280;1639;42.804;23.342;2022-08-25T07:06:09;71417.28;;;-148.52;79.55
3254;BME280;1639;42.804;23.342;2022-08-25T07:08:35;71404.91;;;-148.52;79.16
3254;BME280;1639;42.804;23.342;2022-08-25T07:11:11;71392.50;;;-148.52;78.95
3254;BME280;1639;42.804;23.342;2022-08-25T07:13:37;71378.03;;;-148.52;78.06
3254;BME280;1639;42.804;23.342;2022-08-25T07:16:04;71359.41;;;-148.52;77.78
3254;BME280;1639;42.804;23.342;2022-08-25T07:18:30;71338.75;;;-148.52;76.92
3254;BME280;1639;42.804;23.342;2022-08-25T07:20:55;71316.00;;;-148.52;76.78
3254;BME280;1639;42.804;23.342;2022-08-25T07:23:22;71334.59;;;-148.52;76.74
3254;BME280;1639;42.804;23.342;2022-08-25T07:25:48;71342.88;;;-148.52;75.90
3254;BME280;1639;42.804;23.342;2022-08-25T07:28:15;71338.75;;;-148.52;75.99
3254;BME280;1639;42.804;23.342;2022-08-25T07:30:42;71332.53;;;-148.52;75.93
3254;BME280;1639;42.804;23.342;2022-08-25T07:33:07;71295.31;;;-148.52;76.30
3254;BME280;1639;42.804;23.342;2022-08-25T07:35:33;71272.59;;;-148.52;75.83
3254;BME280;1639;42.804;23.342;2022-08-25T07:37:59;71258.13;;;-148.52;74.90
3254;BME280;1639;42.804;23.342;2022-08-25T07:40:33;71251.91;;;-148.52;73.08
3254;BME280;1639;42.804;23.342;2022-08-25T07:43:03;71247.78;;;-148.52;72.87
3254;BME280;1639;42.804;23.342;2022-08-25T07:45:31;71235.38;;;-148.52;73.88
3254;BME280;1639;42.804;23.342;2022-08-25T07:47:57;71229.16;;;-148.52;72.89
3254;BME280;1639;42.804;23.342;2022-08-25T07:50:24;71237.44;;;-148.52;72.39
3254;BME280;1639;42.804;23.342;2022-08-25T07:52:50;71239.50;;;-148.52;72.62
3254;BME280;1639;42.804;23.342;2022-08-25T07:55:16;71239.50;;;-148.52;71.92
3254;BME280;1639;42.804;23.342;2022-08-25T07:57:42;71229.16;;;-148.52;72.35
3254;BME280;1639;42.804;23.342;2022-08-25T08:00:13;71202.28;;;-148.52;72.34
3254;BME280;1639;42.804;23.342;2022-08-25T08:02:40;71158.88;;;-148.52;71.56
3254;BME280;1639;42.804;23.342;2022-08-25T08:05:07;71115.47;;;-148.52;71.00
3254;BME280;1639;42.804;23.342;2022-08-25T08:07:32;71074.13;;;-148.52;69.98
3254;BME280;1639;42.804;23.342;2022-08-25T08:09:58;71045.19;;;-148.52;68.90
3254;BME280;1639;42.804;23.342;2022-08-25T08:12:24;71030.72;;;-148.52;66.90
3254;BME280;1639;42.804;23.342;2022-08-25T08:14:50;71078.25;;;-148.52;66.85
3254;BME280;1639;42.804;23.342;2022-08-25T08:17:16;71113.41;;;-148.52;68.37
3254;BME280;1639;42.804;23.342;2022-08-25T08:19:42;71090.66;;;-148.52;69.22
3254;BME280;1639;42.804;23.342;2022-08-25T08:22:08;71103.06;;;-148.52;68.04
3254;BME280;1639;42.804;23.342;2022-08-25T08:24:36;71134.06;;;-148.52;68.91
3254;BME280;1639;42.804;23.342;2022-08-25T08:27:07;71115.47;;;-148.52;68.73
3254;BME280;1639;42.804;23.342;2022-08-25T08:29:34;71055.53;;;-148.52;67.27
3254;BME280;1639;42.804;23.342;2022-08-25T08:32:04;71024.50;;;-148.52;65.44
3254;BME280;1639;42.804;23.342;2022-08-25T08:34:30;70983.16;;;-148.52;65.16
3254;BME280;1639;42.804;23.342;2022-08-25T08:36:56;70952.16;;;-148.52;65.06
3254;BME280;1639;42.804;23.342;2022-08-25T08:39:22;70970.75;;;-148.52;64.48
3254;BME280;1639;42.804;23.342;2022-08-25T08:50:41;70896.34;;;-148.52;58.62
3254;BME280;1639;42.804;23.342;2022-08-25T08:58:23;70826.06;;;-148.52;55.95
3254;BME280;1639;42.804;23.342;2022-08-25T09:00:53;70784.72;;;-148.52;54.98
3254;BME280;1639;42.804;23.342;2022-08-25T09:03:36;70846.75;;;-148.52;49.27
3254;BME280;1639;42.804;23.342;2022-08-25T09:06:06;70877.75;;;-148.52;51.43
3254;BME280;1639;42.804;23.342;2022-08-25T09:08:33;70888.06;;;-148.52;50.79
3254;BME280;1639;42.804;23.342;2022-08-25T09:11:23;70937.69;;;-148.52;50.63
3254;BME280;1639;42.804;23.342;2022-08-25T09:16:43;70950.09;;;-148.52;49.33
3254;BME280;1639;42.804;23.342;2022-08-25T09:30:36;70894.28;;;-148.52;48.05
3254;BME280;1639;42.804;23.342;2022-08-25T09:33:05;70950.09;;;-148.52;50.38
3254;BME280;1639;42.804;23.342;2022-08-25T09:35:35;71005.91;;;-148.52;51.08
3254;BME280;1639;42.804;23.342;2022-08-25T09:38:06;70999.72;;;-148.52;49.37
3254;BME280;1639;42.804;23.342;2022-08-25T09:40:36;70995.56;;;-148.52;51.28
3254;BME280;1639;42.804;23.342;2022-08-25T09:43:17;70989.38;;;-148.52;48.13
3254;BME280;1639;42.804;23.342;2022-08-25T09:45:49;71026.56;;;-148.52;48.60
3254;BME280;1639;42.804;23.342;2022-08-25T09:51:22;71038.97;;;-148.52;44.53
3254;BME280;1639;42.804;23.342;2022-08-25T09:53:53;71070.00;;;-148.52;46.33
3254;BME280;1639;42.804;23.342;2022-08-25T09:56:21;71070.00;;;-148.52;47.21
3254;BME280;1639;42.804;23.342;2022-08-25T09:58:48;71041.03;;;-148.52;45.38
3254;BME280;1639;42.804;23.342;2022-08-25T10:01:19;71053.44;;;-148.52;45.21
3254;BME280;1639;42.804;23.342;2022-08-25T10:04:00;71036.91;;;-148.52;45.50
3254;BME280;1639;42.804;23.342;2022-08-25T10:06:36;71010.03;;;-148.52;43.30
3254;BME280;1639;42.804;23.342;2022-08-25T10:09:08;70972.84;;;-148.52;42.69
3254;BME280;1639;42.804;23.342;2022-08-25T10:11:43;70976.97;;;-148.52;43.31
3254;BME280;1639;42.804;23.342;2022-08-25T10:14:31;70991.44;;;-148.52;43.93
3254;BME280;1639;42.804;23.342;2022-08-25T10:20:19;70979.03;;;-148.52;42.47
3254;BME280;1639;42.804;23.342;2022-08-25T10:22:47;70966.63;;;-148.52;43.63
3254;BME280;1639;42.804;23.342;2022-08-25T10:25:15;70945.97;;;-148.52;42.61
3254;BME280;1639;42.804;23.342;2022-08-25T10:27:52;70908.75;;;-148.52;42.12
3254;BME280;1639;42.804;23.342;2022-08-25T10:35:52;70900.47;;;-148.52;43.71
3254;BME280;1639;42.804;23.342;2022-08-25T10:43:34;70962.50;;;-148.52;43.77
3254;BME280;1639;42.804;23.342;2022-08-25T11:05:32;71010.03;;;-148.52;46.81
3254;BME280;1639;42.804;23.342;2022-08-25T11:10:43;71030.72;;;-148.52;46.29
3254;BME280;1639;42.804;23.342;2022-08-25T11:13:37;71038.97;;;-148.52;46.37
3254;BME280;1639;42.804;23.342;2022-08-25T11:16:33;71036.91;;;-148.52;44.14
3254;BME280;1639;42.804;23.342;2022-08-25T11:19:28;71059.66;;;-148.52;45.10
3254;BME280;1639;42.804;23.342;2022-08-25T11:21:59;71045.19;;;-148.52;44.43
3254;BME280;1639;42.804;23.342;2022-08-25T11:26:56;71032.78;;;-148.52;44.97
3254;BME280;1639;42.804;23.342;2022-08-25T11:29:27;71012.09;;;-148.52;45.25
3254;BME280;1639;42.804;23.342;2022-08-25T11:31:57;71024.50;;;-148.52;45.38
3254;BME280;1639;42.804;23.342;2022-08-25T11:34:24;71028.66;;;-148.52;43.39
3254;BME280;1639;42.804;23.342;2022-08-25T11:37:00;71007.97;;;-148.52;43.45
3254;BME280;1639;42.804;23.342;2022-08-25T11:45:17;70989.38;;;-148.52;42.86
3254;BME280;1639;42.804;23.342;2022-08-25T11:50:30;70983.16;;;-148.52;42.90
3254;BME280;1639;42.804;23.342;2022-08-25T11:53:17;71001.78;;;-148.52;42.84
3254;BME280;1639;42.804;23.342;2022-08-25T11:55:49;70987.31;;;-148.52;42.15
3254;BME280;1639;42.804;23.342;2022-08-25T11:58:38;70931.50;;;-148.52;41.09
3254;BME280;1639;42.804;23.342;2022-08-25T12:01:08;70954.22;;;-148.52;41.97
3254;BME280;1639;42.804;23.342;2022-08-25T12:14:35;70904.63;;;-148.52;41.11
3254;BME280;1639;42.804;23.342;2022-08-25T12:17:15;70908.75;;;-148.52;41.90
3254;BME280;1639;42.804;23.342;2022-08-25T12:27:28;70933.56;;;-148.52;41.88
3254;BME280;1639;42.804;23.342;2022-08-25T12:35:58;70943.88;;;-148.52;40.91
3254;BME280;1639;42.804;23.342;2022-08-25T12:41:08;70906.69;;;-148.52;41.56
3254;BME280;1639;42.804;23.342;2022-08-25T12:43:37;70929.41;;;-148.52;41.16
3254;BME280;1639;42.804;23.342;2022-08-25T12:54:41;70970.75;;;-148.52;42.18
3254;BME280;1639;42.804;23.342;2022-08-25T13:00:00;70933.56;;;-148.52;41.76
3254;BME280;1639;42.804;23.342;2022-08-25T13:05:35;70902.53;;;-148.52;43.46
3254;BME280;1639;42.804;23.342;2022-08-25T13:13:39;70966.63;;;-148.52;41.84
3254;BME280;1639;42.804;23.342;2022-08-25T13:16:17;70956.28;;;-148.52;42.04
3254;BME280;1639;42.804;23.342;2022-08-25T13:18:42;70952.16;;;-148.52;42.82
3254;BME280;1639;42.804;23.342;2022-08-25T13:21:17;70960.44;;;-148.52;42.62
3254;BME280;1639;42.804;23.342;2022-08-25T13:23:49;70952.16;;;-148.52;41.88
3254;BME280;1639;42.804;23.342;2022-08-25T13:26:21;70976.97;;;-148.52;41.52
3254;BME280;1639;42.804;23.342;2022-08-25T13:29:11;70970.75;;;-148.52;41.99
3254;BME280;1639;42.804;23.342;2022-08-25T13:31:49;70985.22;;;-148.52;41.88
3254;BME280;1639;42.804;23.342;2022-08-25T13:34:20;70962.50;;;-148.52;42.10
3254;BME280;1639;42.804;23.342;2022-08-25T13:36:47;70954.22;;;-148.52;41.73
3254;BME280;1639;42.804;23.342;2022-08-25T13:39:33;70970.75;;;-148.52;41.23
3254;BME280;1639;42.804;23.342;2022-08-25T13:42:00;70945.97;;;-148.52;41.39
3254;BME280;1639;42.804;23.342;2022-08-25T13:44:30;70941.81;;;-148.52;41.52
3254;BME280;1639;42.804;23.342;2022-08-25T13:47:15;70966.63;;;-148.52;41.47
3254;BME280;1639;42.804;23.342;2022-08-25T13:49:45;70972.84;;;-148.52;41.35
3254;BME280;1639;42.804;23.342;2022-08-25T13:52:25;70970.75;;;-148.52;41.63
3254;BME280;1639;42.804;23.342;2022-08-25T13:54:57;70970.75;;;-148.52;42.35
3254;BME280;1639;42.804;23.342;2022-08-25T13:57:26;70972.84;;;-148.52;42.26
3254;BME280;1639;42.804;23.342;2022-08-25T14:00:00;70985.22;;;-148.52;42.14
3254;BME280;1639;42.804;23.342;2022-08-25T14:05:04;70999.72;;;-148.52;42.13
3254;BME280;1639;42.804;23.342;2022-08-25T14:07:30;70999.72;;;-148.52;42.54
3254;BME280;1639;42.804;23.342;2022-08-25T14:10:07;71020.38;;;-148.52;43.04
3254;BME280;1639;42.804;23.342;2022-08-25T14:12:41;70995.56;;;-148.52;43.19
3254;BME280;1639;42.804;23.342;2022-08-25T14:15:26;71003.84;;;-148.52;43.06
3254;BME280;1639;42.804;23.342;2022-08-25T14:18:17;71012.09;;;-148.52;41.89
3254;BME280;1639;42.804;23.342;2022-08-25T14:20:49;71003.84;;;-148.52;41.34
3254;BME280;1639;42.804;23.342;2022-08-25T14:23:21;70991.44;;;-148.52;40.73
3254;BME280;1639;42.804;23.342;2022-08-25T14:25:50;71003.84;;;-148.52;41.26
3254;BME280;1639;42.804;23.342;2022-08-25T14:28:18;71003.84;;;-148.52;41.58
3254;BME280;1639;42.804;23.342;2022-08-25T14:31:08;71003.84;;;-148.52;41.78
3254;BME280;1639;42.804;23.342;2022-08-25T14:33:37;70993.50;;;-148.52;41.88
3254;BME280;1639;42.804;23.342;2022-08-25T14:36:04;71010.03;;;-148.52;41.65
3254;BME280;1639;42.804;23.342;2022-08-25T14:38:31;71020.38;;;-148.52;42.10
3254;BME280;1639;42.804;23.342;2022-08-25T14:40:58;71020.38;;;-148.52;41.92
3254;BME280;1639;42.804;23.342;2022-08-25T14:43:23;71024.50;;;-148.52;42.43
3254;BME280;1639;42.804;23.342;2022-08-25T14:45:49;71016.25;;;-148.52;42.58
3254;BME280;1639;42.804;23.342;2022-08-25T14:48:27;71036.91;;;-148.52;42.42
3254;BME280;1639;42.804;23.342;2022-08-25T14:50:55;71032.78;;;-148.52;43.10
3254;BME280;1639;42.804;23.342;2022-08-25T14:53:22;71028.66;;;-148.52;43.31
3254;BME280;1639;42.804;23.342;2022-08-25T14:55:47;71036.91;;;-148.52;43.12
3254;BME280;1639;42.804;23.342;2022-08-25T14:58:18;71020.38;;;-148.52;43.15
3254;BME280;1639;42.804;23.342;2022-08-25T15:00:44;71014.19;;;-148.52;43.29
3254;BME280;1639;42.804;23.342;2022-08-25T15:03:24;71028.66;;;-148.52;43.50
3254;BME280;1639;42.804;23.342;2022-08-25T15:05:52;70997.63;;;-148.52;42.53
3254;BME280;1639;42.804;23.342;2022-08-25T15:08:17;70997.63;;;-148.52;43.17
3254;BME280;1639;42.804;23.342;2022-08-25T15:11:01;70999.72;;;-148.52;43.65
3254;BME280;1639;42.804;23.342;2022-08-25T15:13:27;71041.03;;;-148.52;43.44
3254;BME280;1639;42.804;23.342;2022-08-25T15:15:52;71051.38;;;-148.52;43.87